Time;durP1;ratioP1;P1;durP2;ratioP2;P2;SDS_P1;SDS_P2;PMS_P1;PMS_P2;Temp;Humidity;BMP_temperature;BMP_pressure;BME280_temperature;BME280_humidity;BME280_pressure;Samples;Min_cycle;Max_cycle;Signal;HPM_P1;HPM_P2
2021/11/28 00:02:36;;;;;;;131.47;67.53;;;;;;;1.85;94.59;97208.81;4265308;81;21038;-84
2021/11/28 00:08:49;;;;;;;141.92;72.00;;;;;;;1.79;95.43;97200.23;4274010;81;21516;-87
2021/11/28 00:14:41;;;;;;;155.57;73.65;;;;;;;1.73;95.23;97213.81;4263164;81;21109;-85
2021/11/28 00:20:43;;;;;;;162.92;70.05;;;;;;;1.72;95.21;97204.73;4277141;81;21034;-85
2021/11/28 00:26:45;;;;;;;160.20;61.40;;;;;;;1.77;95.29;97182.86;4258076;81;21083;-86
2021/11/28 00:32:46;;;;;;;132.90;60.95;;;;;;;1.75;95.24;97180.52;4256898;81;21058;-85
2021/11/28 00:38:48;;;;;;;140.20;59.73;;;;;;;1.75;95.64;97185.12;4261925;81;21138;-86
2021/11/28 00:44:49;;;;;;;123.28;57.45;;;;;;;1.76;95.63;97190.72;4242676;81;21014;-85
2021/11/28 00:51:00;;;;;;;144.17;58.87;;;;;;;1.78;96.07;97195.19;4271688;81;22082;-85
2021/11/28 00:56:54;;;;;;;124.33;58.28;;;;;;;1.80;95.91;97178.88;4241445;82;21549;-85
2021/11/28 01:02:56;;;;;;;118.97;58.10;;;;;;;1.79;96.13;97192.14;4245676;81;21029;-85
2021/11/28 01:08:57;;;;;;;131.35;58.13;;;;;;;1.79;95.68;97193.48;4254844;82;21471;-86
2021/11/28 01:14:59;;;;;;;134.07;58.60;;;;;;;1.75;95.79;97192.66;4261529;81;21055;-85
2021/11/28 01:21:01;;;;;;;121.62;57.03;;;;;;;1.66;95.88;97186.70;4278283;81;21077;-84
2021/11/28 01:27:07;;;;;;;138.65;61.75;;;;;;;1.63;95.94;97189.37;4286802;81;21093;-85
2021/11/28 01:33:08;;;;;;;126.60;57.05;;;;;;;1.59;95.72;97193.34;4283826;81;21063;-86
2021/11/28 01:39:11;;;;;;;137.52;62.08;;;;;;;1.58;95.81;97186.41;4273404;81;21030;-84
2021/11/28 01:45:24;;;;;;;127.60;58.28;;;;;;;1.50;95.94;97189.52;4283854;81;21557;-84
2021/11/28 01:51:26;;;;;;;128.20;56.53;;;;;;;1.44;95.80;97188.27;4285238;81;21074;-84
2021/11/28 01:57:28;;;;;;;135.32;60.58;;;;;;;1.39;96.42;97188.55;4289983;81;21029;-86
2021/11/28 02:03:29;;;;;;;133.75;59.30;;;;;;;1.40;96.61;97184.74;4295942;81;21053;-84
2021/11/28 02:09:31;;;;;;;180.90;63.50;;;;;;;1.51;97.08;97203.23;4273010;81;21561;-85
2021/11/28 02:15:33;;;;;;;138.55;58.40;;;;;;;1.46;96.28;97203.53;4290669;81;21036;-87
2021/11/28 02:21:34;;;;;;;121.92;58.30;;;;;;;1.49;96.82;97203.36;4293283;81;21042;-85
2021/11/28 02:27:37;;;;;;;155.93;64.22;;;;;;;1.52;96.97;97185.12;4303048;81;21028;-87
2021/11/28 02:33:39;;;;;;;145.17;57.00;;;;;;;1.59;97.12;97195.48;4287418;81;21053;-85
2021/11/28 02:39:41;;;;;;;113.12;53.30;;;;;;;1.57;96.99;97197.75;4304958;81;21081;-86
2021/11/28 02:45:43;;;;;;;124.65;57.17;;;;;;;1.55;96.50;97212.16;4273696;81;21056;-86
2021/11/28 02:51:45;;;;;;;127.60;58.85;;;;;;;1.44;97.21;97222.56;4280880;81;21056;-85
2021/11/28 02:57:46;;;;;;;124.30;57.15;;;;;;;1.54;97.61;97229.48;4284711;81;21068;-84
2021/11/28 03:03:51;;;;;;;134.30;59.55;;;;;;;1.66;97.62;97227.75;4287308;81;21065;-88
2021/11/28 03:09:52;;;;;;;123.22;58.45;;;;;;;1.64;97.25;97220.78;4275258;81;21018;-84
2021/11/28 03:15:58;;;;;;;141.22;60.23;;;;;;;1.67;97.41;97194.23;4299118;81;21016;-85
2021/11/28 03:22:00;;;;;;;141.32;60.45;;;;;;;1.68;97.55;97193.12;4298232;81;21105;-85
2021/11/28 03:28:01;;;;;;;155.22;62.43;;;;;;;1.67;97.80;97195.59;4289936;81;21109;-85
2021/11/28 03:34:05;;;;;;;141.95;60.50;;;;;;;1.70;97.82;97190.81;4286233;81;21018;-84
2021/11/28 03:40:11;;;;;;;114.63;52.00;;;;;;;1.58;97.35;97208.73;4265850;81;21607;-85
2021/11/28 03:46:14;;;;;;;129.07;60.35;;;;;;;1.47;97.81;97225.30;4295183;81;21537;-85
2021/11/28 03:52:16;;;;;;;129.82;53.92;;;;;;;1.52;98.17;97234.45;4284930;81;21085;-84
2021/11/28 03:58:18;;;;;;;131.35;57.35;;;;;;;1.61;97.78;97232.88;4295564;81;21490;-84
2021/11/28 04:04:19;;;;;;;120.95;54.60;;;;;;;1.61;98.35;97226.89;4267541;81;21057;-85
2021/11/28 04:10:23;;;;;;;128.30;55.80;;;;;;;1.70;98.44;97221.84;4253398;81;21063;-83
2021/11/28 04:16:24;;;;;;;134.32;57.78;;;;;;;1.76;98.23;97222.53;4276093;81;21002;-84
2021/11/28 04:22:26;;;;;;;136.07;58.42;;;;;;;1.77;98.38;97214.64;4274406;81;21034;-85
2021/11/28 04:28:27;;;;;;;135.32;57.25;;;;;;;1.85;98.42;97212.86;4282100;81;21010;-86
2021/11/28 04:34:30;;;;;;;132.00;56.65;;;;;;;1.84;98.24;97207.23;4283317;82;22291;-84
2021/11/28 04:40:32;;;;;;;140.82;59.65;;;;;;;1.82;98.60;97198.16;4298313;81;21041;-84
2021/11/28 04:46:33;;;;;;;141.32;59.27;;;;;;;1.87;98.64;97182.23;4300971;81;21049;-84
2021/11/28 04:52:36;;;;;;;130.87;57.10;;;;;;;1.85;98.40;97175.84;4279187;81;21093;-84
2021/11/28 04:58:39;;;;;;;135.32;56.70;;;;;;;1.89;98.64;97159.72;4279659;81;21571;-85
2021/11/28 05:04:40;;;;;;;149.10;59.80;;;;;;;1.90;98.54;97161.27;4282137;81;21061;-84
2021/11/28 05:11:02;;;;;;;122.60;51.90;;;;;;;1.92;98.80;97168.44;4270774;81;21548;-84
2021/11/28 05:17:04;;;;;;;115.77;50.38;;;;;;;1.84;98.22;97175.66;4281258;81;21041;-86
2021/11/28 05:23:07;;;;;;;119.20;51.58;;;;;;;1.83;98.56;97197.59;4284597;81;21693;-86
2021/11/28 05:29:09;;;;;;;123.72;51.80;;;;;;;1.74;98.71;97188.98;4302262;81;21544;-84
2021/11/28 06:37:24;;;;;;;131.27;53.28;;;;;;;2.98;98.40;97168.72;4596383;74;22304;-84
2021/11/28 06:43:46;;;;;;;126.55;52.13;;;;;;;2.67;98.65;97163.16;4519100;77;21052;-86
2021/11/28 06:49:49;;;;;;;128.30;54.10;;;;;;;2.38;98.79;97154.46;4525618;77;21021;-84
2021/11/28 06:55:55;;;;;;;133.43;53.75;;;;;;;2.22;98.90;97151.17;4371848;77;28608;-85
2021/11/28 07:02:09;;;;;;;118.72;47.08;;;;;;;2.14;99.11;97141.98;4275197;81;22355;-82
2021/11/28 07:08:12;;;;;;;111.68;46.65;;;;;;;2.01;98.81;97145.45;4268714;81;21054;-87
2021/11/28 07:14:14;;;;;;;125.18;49.55;;;;;;;1.90;99.00;97141.82;4275360;81;21047;-85
2021/11/28 07:20:17;;;;;;;110.20;46.18;;;;;;;1.90;99.24;97135.63;4270582;81;21592;-85
2021/11/28 07:26:20;;;;;;;107.22;47.00;;;;;;;1.86;99.14;97131.56;4276244;81;21703;-88
2021/11/28 07:32:23;;;;;;;114.45;48.60;;;;;;;1.89;99.41;97125.44;4263927;81;21085;-85
2021/11/28 07:38:44;;;;;;;107.43;48.87;;;;;;;1.99;99.67;97128.84;4277859;81;21077;-85
2021/11/28 07:44:46;;;;;;;115.77;47.95;;;;;;;2.04;99.70;97129.88;4272833;81;21863;-87
2021/11/28 07:51:06;;;;;;;122.00;50.03;;;;;;;2.13;99.75;97104.75;4275466;81;21563;-88
2021/11/28 07:57:07;;;;;;;123.67;49.60;;;;;;;2.23;99.99;97116.84;4243896;81;55692;-85
2021/11/28 08:03:28;;;;;;;122.78;50.43;;;;;;;2.33;100.00;97118.34;4300039;81;22061;-87
2021/11/28 08:09:48;;;;;;;122.98;52.13;;;;;;;2.47;99.95;97123.14;4276015;81;21089;-85
2021/11/28 08:15:50;;;;;;;123.53;56.98;;;;;;;2.56;99.75;97110.13;4300247;81;21093;-85
2021/11/28 08:21:51;;;;;;;124.75;53.52;;;;;;;2.66;99.62;97122.41;4278558;81;21033;-85
2021/11/28 08:27:53;;;;;;;126.40;55.00;;;;;;;2.77;99.67;97119.26;4275523;81;21069;-86
2021/11/28 08:33:55;;;;;;;123.47;55.75;;;;;;;2.86;99.67;97113.02;4282798;80;21756;-84
2021/11/28 08:40:07;;;;;;;140.60;61.40;;;;;;;2.96;99.74;97112.33;4160017;82;21170;-85
2021/11/28 08:46:09;;;;;;;146.02;63.68;;;;;;;3.07;99.79;97115.14;4210460;83;21595;-85
2021/11/28 08:52:12;;;;;;;133.22;60.95;;;;;;;3.16;99.74;97092.06;4202344;83;21521;-86
2021/11/28 08:58:14;;;;;;;130.90;60.05;;;;;;;3.20;99.73;97103.70;4216643;83;21063;-85
2021/11/28 09:04:15;;;;;;;126.40;59.30;;;;;;;3.36;99.68;97110.22;4203768;83;21024;-86
2021/11/28 09:10:18;;;;;;;130.90;58.98;;;;;;;3.42;99.62;97107.94;4199165;83;21034;-85
2021/11/28 09:16:22;;;;;;;138.88;61.77;;;;;;;3.43;99.31;97110.86;4104317;85;21196;-84
2021/11/28 09:22:35;;;;;;;135.07;62.27;;;;;;;3.39;99.15;97114.09;4118912;81;32374;-84
2021/11/28 09:28:27;;;;;;;135.25;61.58;;;;;;;3.35;99.17;97095.72;4026189;86;21341;-84
2021/11/28 09:34:28;;;;;;;118.08;55.25;;;;;;;3.34;99.37;97092.80;4115752;84;21083;-88
2021/11/28 09:40:30;;;;;;;112.05;55.48;;;;;;;3.51;99.48;97107.08;4097533;85;21070;-85
2021/11/28 09:46:32;;;;;;;137.35;58.87;;;;;;;3.69;99.36;97090.39;4117157;85;21121;-86
2021/11/28 09:52:35;;;;;;;113.77;54.98;;;;;;;3.74;98.96;97061.63;4120722;85;21069;-85
2021/11/28 09:58:38;;;;;;;103.45;49.60;;;;;;;3.80;99.01;97053.36;4123105;85;21065;-86
2021/11/28 10:04:40;;;;;;;92.65;45.98;;;;;;;3.93;98.99;97036.41;4117431;85;21053;-87
2021/11/28 10:10:44;;;;;;;80.90;43.33;;;;;;;4.04;99.04;97010.77;4113716;85;21442;-84
2021/11/28 10:16:48;;;;;;;90.17;44.73;;;;;;;4.24;99.06;96993.06;4179786;83;21425;-85
2021/11/28 10:22:50;;;;;;;80.67;41.05;;;;;;;4.32;98.75;97002.77;4184452;83;21085;-86
2021/11/28 10:29:13;;;;;;;71.00;38.80;;;;;;;4.46;98.84;96992.73;4181521;83;21036;-85
2021/11/28 10:35:14;;;;;;;73.47;36.42;;;;;;;4.65;98.49;96986.98;4179337;83;21092;-86
2021/11/28 10:41:23;;;;;;;61.02;32.65;;;;;;;5.02;98.73;96977.73;4112714;85;21093;-85
2021/11/28 10:47:42;;;;;;;58.85;31.42;;;;;;;5.21;98.14;96966.51;4186632;83;20989;-85
2021/11/28 10:53:49;;;;;;;60.88;33.55;;;;;;;4.90;97.33;96951.02;4180193;83;21044;-86
2021/11/28 10:59:57;;;;;;;65.28;34.27;;;;;;;4.51;97.25;96945.55;4186081;83;20975;-86
2021/11/28 11:06:25;;;;;;;66.42;34.58;;;;;;;4.34;97.31;96949.75;4186488;83;21045;-86
2021/11/28 11:12:35;;;;;;;62.75;33.65;;;;;;;4.25;97.24;96956.12;4176920;83;21029;-85
2021/11/28 11:18:35;;;;;;;57.10;33.43;;;;;;;4.16;97.17;96950.29;4121844;85;21695;-85
2021/11/28 11:24:40;;;;;;;71.65;34.73;;;;;;;4.18;97.11;96936.37;4111466;85;21167;-85
2021/11/28 11:30:43;;;;;;;61.50;32.53;;;;;;;4.13;96.81;96927.25;4183982;83;21060;-86
2021/11/28 11:37:03;;;;;;;68.97;35.23;;;;;;;4.05;96.77;96931.09;4187052;83;21097;-86
2021/11/28 11:43:05;;;;;;;61.10;34.58;;;;;;;3.96;96.59;96927.38;4170886;83;21060;-86
2021/11/28 11:49:08;;;;;;;69.60;38.00;;;;;;;3.92;96.51;96930.66;4177870;83;21040;-86
2021/11/28 11:55:18;;;;;;;75.30;39.35;;;;;;;3.87;96.45;96920.19;4155200;83;21726;-89
2021/11/28 12:01:28;;;;;;;76.30;40.33;;;;;;;3.80;96.31;96920.74;4178518;83;21084;-86
2021/11/28 12:07:55;;;;;;;74.42;40.92;;;;;;;3.73;96.31;96918.02;4181818;83;21560;-86
2021/11/28 12:13:59;;;;;;;61.20;30.80;;;;;;;3.69;96.16;96901.77;4176773;83;21770;-85
2021/11/28 12:20:01;;;;;;;67.37;36.88;;;;;;;3.64;96.29;96906.75;4173673;83;21104;-89
2021/11/28 12:26:03;;;;;;;65.25;36.28;;;;;;;3.57;96.06;96894.55;4178396;83;21163;-85
2021/11/28 12:32:15;;;;;;;82.12;44.48;;;;;;;3.47;96.30;96883.09;4181323;83;21647;-85
2021/11/28 12:38:22;;;;;;;87.72;47.83;;;;;;;3.37;96.03;96858.89;4176065;83;21053;-85
2021/11/28 12:44:34;;;;;;;88.03;47.10;;;;;;;3.27;96.29;96835.86;4173917;83;21042;-85
2021/11/28 12:51:04;;;;;;;82.82;45.63;;;;;;;3.22;96.51;96831.59;4158428;83;21075;-85
2021/11/28 12:57:25;;;;;;;83.70;43.38;;;;;;;3.24;97.08;96830.65;4183090;83;21073;-85
2021/11/28 13:03:27;;;;;;;82.22;43.42;;;;;;;3.29;96.97;96802.47;4177790;83;21544;-85
2021/11/28 13:09:38;;;;;;;85.90;43.75;;;;;;;3.31;96.99;96788.75;4174186;83;21057;-85
2021/11/28 13:15:48;;;;;;;81.17;42.55;;;;;;;3.34;97.29;96799.37;4179243;83;21588;-87
2021/11/28 13:21:49;;;;;;;69.67;39.88;;;;;;;3.36;97.39;96791.09;4180399;83;21547;-85
2021/11/28 13:28:20;;;;;;;71.33;40.58;;;;;;;3.37;97.52;96787.83;4178261;83;21026;-86
2021/11/28 13:34:30;;;;;;;69.45;38.08;;;;;;;3.40;97.54;96802.69;4180197;83;21056;-85
2021/11/28 13:40:32;;;;;;;71.50;38.53;;;;;;;3.41;97.76;96789.38;4173369;83;21567;-90
2021/11/28 13:46:39;;;;;;;71.20;39.67;;;;;;;3.43;97.84;96782.99;4180731;83;21096;-87
2021/11/28 13:52:41;;;;;;;77.08;40.40;;;;;;;3.45;97.81;96786.10;4185908;83;21068;-86
2021/11/28 13:58:42;;;;;;;85.65;45.33;;;;;;;3.45;98.09;96783.39;4179649;83;21051;-87
2021/11/28 14:05:00;;;;;;;85.17;44.03;;;;;;;3.45;98.08;96765.81;4180227;83;21119;-87
2021/11/28 14:11:13;;;;;;;81.25;43.08;;;;;;;3.44;98.23;96765.62;4184536;83;21647;-85
2021/11/28 14:17:14;;;;;;;119.45;67.58;;;;;;;3.46;98.49;96747.06;4180167;83;21068;-86
2021/11/28 14:23:17;;;;;;;81.22;42.48;;;;;;;3.45;98.40;96737.98;4187703;83;21128;-86
2021/11/28 14:29:28;;;;;;;82.88;41.37;;;;;;;3.46;98.78;96739.55;4173087;83;21056;-85
2021/11/28 14:35:29;;;;;;;80.03;39.98;;;;;;;3.49;98.66;96732.02;4180230;83;22284;-86
2021/11/28 14:41:42;;;;;;;77.00;38.63;;;;;;;3.47;98.76;96719.45;4176812;83;21088;-86
2021/11/28 14:47:43;;;;;;;79.77;38.70;;;;;;;3.48;98.99;96723.13;4181217;83;21584;-87
2021/11/28 14:53:47;;;;;;;78.55;38.73;;;;;;;3.50;98.80;96745.73;4186214;83;21111;-85
2021/11/28 14:59:52;;;;;;;85.42;42.10;;;;;;;3.50;98.81;96707.30;4159934;83;21068;-86
2021/11/28 15:06:05;;;;;;;85.62;42.45;;;;;;;3.50;99.17;96705.16;4189315;83;21714;-86
2021/11/28 15:12:28;;;;;;;89.55;44.05;;;;;;;3.52;99.22;96720.44;4183061;83;21105;-87
2021/11/28 15:18:31;;;;;;;93.17;43.02;;;;;;;3.52;99.41;96724.49;4189585;83;21394;-85
2021/11/28 15:24:32;;;;;;;82.17;41.25;;;;;;;3.53;99.59;96721.41;4187831;83;21026;-86
2021/11/28 15:30:34;;;;;;;88.87;43.50;;;;;;;3.57;99.74;96706.54;4189717;83;21096;-88
2021/11/28 15:36:38;;;;;;;87.20;42.95;;;;;;;3.60;100.00;96744.42;4191237;83;21056;-86
2021/11/28 15:42:40;;;;;;;88.62;44.03;;;;;;;3.58;99.78;96750.80;4209546;83;21059;-86
2021/11/28 15:48:42;;;;;;;89.15;42.85;;;;;;;3.60;100.00;96746.34;4209913;83;21438;-86
2021/11/28 15:54:43;;;;;;;96.82;46.50;;;;;;;3.65;100.00;96756.80;4210807;83;21090;-87
2021/11/28 16:00:45;;;;;;;94.65;46.00;;;;;;;3.68;100.00;96750.62;4207545;83;21028;-88
2021/11/28 16:06:46;;;;;;;98.78;47.05;;;;;;;3.64;100.00;96730.88;4205050;83;21097;-85
2021/11/28 16:12:48;;;;;;;98.82;45.10;;;;;;;3.63;100.00;96745.02;4198513;83;21653;-86
2021/11/28 16:18:49;;;;;;;95.25;46.05;;;;;;;3.63;100.00;96736.11;4202954;83;21073;-86
2021/11/28 16:24:51;;;;;;;92.05;42.27;;;;;;;3.64;100.00;96739.78;4214787;83;21119;-86
2021/11/28 16:30:54;;;;;;;87.75;41.45;;;;;;;3.68;100.00;96732.44;4208912;83;20983;-88
2021/11/28 16:36:55;;;;;;;100.25;46.05;;;;;;;3.63;100.00;96737.47;4201894;83;21914;-85
2021/11/28 16:42:58;;;;;;;103.65;46.65;;;;;;;3.66;100.00;96723.17;4186221;83;21017;-85
2021/11/28 16:48:59;;;;;;;100.25;47.08;;;;;;;3.72;100.00;96725.69;4184810;83;21543;-86
2021/11/28 16:55:01;;;;;;;111.83;50.98;;;;;;;3.65;100.00;96732.45;4184560;83;22519;-89
2021/11/28 17:01:03;;;;;;;119.25;54.93;;;;;;;3.69;100.00;96718.34;4173361;83;21092;-85
2021/11/28 17:07:04;;;;;;;131.52;60.92;;;;;;;3.68;100.00;96714.84;4107269;85;21044;-86
2021/11/28 17:13:09;;;;;;;114.55;52.23;;;;;;;3.65;100.00;96721.63;4187890;83;21042;-85
2021/11/28 17:19:11;;;;;;;111.22;51.42;;;;;;;3.70;100.00;96713.89;4184443;83;21067;-86
2021/11/28 17:25:15;;;;;;;107.03;47.27;;;;;;;3.67;100.00;96684.91;4188800;83;21053;-86
2021/11/28 17:31:16;;;;;;;103.55;46.42;;;;;;;3.69;100.00;96677.19;4116559;85;21072;-85
2021/11/28 17:37:17;;;;;;;108.83;48.02;;;;;;;3.63;100.00;96690.91;4183792;83;21121;-85
2021/11/28 17:43:21;;;;;;;124.15;54.90;;;;;;;3.63;100.00;96699.02;4185881;83;21009;-86
2021/11/28 17:49:24;;;;;;;121.42;50.85;;;;;;;3.69;100.00;96668.28;4183645;83;21079;-86
2021/11/28 17:55:26;;;;;;;114.90;50.80;;;;;;;3.72;100.00;96676.98;4184585;83;21041;-86
2021/11/28 18:01:28;;;;;;;110.72;53.17;;;;;;;3.78;100.00;96693.80;4184003;83;21096;-85
2021/11/28 18:07:29;;;;;;;120.02;56.50;;;;;;;3.78;100.00;96690.31;4068243;83;9999692;-85
2021/11/28 18:13:31;;;;;;;113.50;54.13;;;;;;;3.80;100.00;96694.20;4183873;83;21104;-85
2021/11/28 18:19:33;;;;;;;115.37;55.10;;;;;;;3.73;100.00;96665.77;4183787;83;21036;-86
2021/11/28 18:25:36;;;;;;;123.15;54.35;;;;;;;3.78;100.00;96656.48;4172077;83;21072;-85
2021/11/28 18:31:38;;;;;;;127.20;58.87;;;;;;;3.80;100.00;96649.55;4186355;83;21091;-86
2021/11/28 18:37:40;;;;;;;122.55;52.65;;;;;;;3.82;100.00;96658.63;4184595;83;21076;-87
2021/11/28 18:43:42;;;;;;;123.82;47.93;;;;;;;3.78;100.00;96657.27;4182802;83;21989;-85
2021/11/28 18:49:44;;;;;;;121.70;49.83;;;;;;;3.76;100.00;96649.36;4184052;83;21068;-88
2021/11/28 18:55:46;;;;;;;115.28;48.85;;;;;;;3.74;100.00;96644.34;4183469;83;21108;-88
2021/11/28 19:01:48;;;;;;;114.32;49.90;;;;;;;3.75;100.00;96676.98;4180338;83;21090;-86
2021/11/28 19:07:50;;;;;;;108.00;48.15;;;;;;;3.72;100.00;96695.34;4176070;83;21026;-85
2021/11/28 19:13:51;;;;;;;110.00;48.60;;;;;;;3.68;100.00;96708.09;4176310;83;21086;-85
2021/11/28 19:19:52;;;;;;;112.05;50.85;;;;;;;3.65;100.00;96708.10;4183699;83;21088;-87
2021/11/28 19:25:54;;;;;;;119.95;49.50;;;;;;;3.64;100.00;96717.36;4178684;83;21093;-85
2021/11/28 19:31:55;;;;;;;127.87;51.98;;;;;;;3.59;100.00;96738.80;4181514;83;21074;-88
2021/11/28 19:37:57;;;;;;;117.17;50.20;;;;;;;3.60;100.00;96742.29;4179526;83;21100;-85
2021/11/28 19:44:01;;;;;;;126.95;55.15;;;;;;;3.60;100.00;96735.53;4173574;83;21071;-86
2021/11/28 19:50:06;;;;;;;126.02;56.42;;;;;;;3.58;100.00;96739.19;4180647;83;21073;-85
2021/11/28 19:56:08;;;;;;;128.05;57.05;;;;;;;3.55;100.00;96746.72;4179882;83;21049;-86
2021/11/28 20:02:09;;;;;;;139.25;62.75;;;;;;;3.54;100.00;96751.34;4177725;83;21062;-85
2021/11/28 20:08:13;;;;;;;149.30;62.35;;;;;;;3.53;100.00;96747.09;4184852;82;21029;-86
2021/11/28 20:14:14;;;;;;;135.82;61.98;;;;;;;3.50;100.00;96743.03;4178547;83;21615;-85
2021/11/28 20:20:16;;;;;;;141.07;65.62;;;;;;;3.47;100.00;96749.98;4171260;83;21514;-85
2021/11/28 20:26:19;;;;;;;147.53;65.55;;;;;;;3.41;100.00;96758.28;4176783;83;21116;-86
2021/11/28 20:32:21;;;;;;;145.45;64.87;;;;;;;3.23;100.00;96757.42;4175954;83;21053;-85
2021/11/28 20:38:22;;;;;;;128.42;57.75;;;;;;;3.09;100.00;96761.42;4172118;83;21085;-86
2021/11/28 20:44:24;;;;;;;116.10;53.60;;;;;;;2.91;100.00;96750.52;4173379;83;21975;-86
2021/11/28 20:50:26;;;;;;;112.50;48.70;;;;;;;2.77;100.00;96759.91;4177067;83;21034;-85
2021/11/28 20:56:27;;;;;;;113.50;51.37;;;;;;;2.71;100.00;96775.52;4183361;83;21385;-87
2021/11/28 21:02:29;;;;;;;117.22;50.70;;;;;;;2.66;100.00;96799.58;4176478;83;21028;-88
2021/11/28 21:08:31;;;;;;;112.55;51.30;;;;;;;2.61;100.00;96780.27;4181273;83;21744;-87
2021/11/28 21:14:34;;;;;;;110.20;48.98;;;;;;;2.49;100.00;96798.89;4173001;83;21143;-85
2021/11/28 21:20:36;;;;;;;112.32;48.92;;;;;;;2.38;100.00;96788.58;4179324;83;21097;-86
2021/11/28 21:26:38;;;;;;;114.40;48.23;;;;;;;2.30;100.00;96779.47;4182546;83;21211;-87
2021/11/28 21:32:40;;;;;;;126.82;52.67;;;;;;;2.25;100.00;96794.09;4183089;83;21499;-85
2021/11/28 21:38:41;;;;;;;109.85;48.45;;;;;;;2.21;100.00;96801.95;4186318;83;21061;-85
2021/11/28 21:44:43;;;;;;;108.67;48.60;;;;;;;2.17;100.00;96791.69;4176685;83;21044;-85
2021/11/28 21:50:47;;;;;;;101.30;44.80;;;;;;;2.08;100.00;96791.23;4177430;83;21553;-86
2021/11/28 21:56:49;;;;;;;92.45;40.58;;;;;;;2.05;100.00;96793.33;4175210;83;21109;-85
2021/11/28 22:02:51;;;;;;;76.07;33.65;;;;;;;1.99;100.00;96779.38;4185137;83;21009;-85
2021/11/28 22:08:53;;;;;;;65.42;29.98;;;;;;;1.88;100.00;96779.86;4176137;83;21026;-86
2021/11/28 22:14:54;;;;;;;72.27;33.60;;;;;;;1.72;99.81;96783.95;4183308;83;21076;-85
2021/11/28 22:20:56;;;;;;;76.92;34.08;;;;;;;1.67;99.90;96792.37;4178960;83;21072;-85
2021/11/28 22:26:57;;;;;;;81.12;36.58;;;;;;;1.62;99.88;96802.92;4182464;83;21076;-85
2021/11/28 22:33:00;;;;;;;82.60;37.30;;;;;;;1.60;99.93;96801.94;4186566;83;21802;-87
2021/11/28 22:39:03;;;;;;;76.35;32.98;;;;;;;1.55;99.92;96794.17;4165422;83;21140;-85
2021/11/28 22:45:07;;;;;;;73.90;34.23;;;;;;;1.51;99.77;96810.90;4181223;83;21068;-85
2021/11/28 22:51:11;;;;;;;89.65;37.67;;;;;;;1.42;99.92;96803.67;4188527;83;21565;-86
2021/11/28 22:57:13;;;;;;;72.42;33.33;;;;;;;1.38;99.89;96788.58;4180981;83;21058;-86
2021/11/28 23:03:15;;;;;;;68.00;32.50;;;;;;;1.38;100.00;96765.66;4179264;83;21116;-84
2021/11/28 23:09:18;;;;;;;75.20;34.45;;;;;;;1.35;99.72;96765.05;4180069;83;21049;-86
2021/11/28 23:15:21;;;;;;;75.80;33.15;;;;;;;1.33;99.92;96774.10;4185392;83;21554;-85
2021/11/28 23:21:25;;;;;;;70.12;31.55;;;;;;;1.32;99.95;96797.58;4181704;83;21602;-86
2021/11/28 23:27:28;;;;;;;71.90;29.67;;;;;;;1.33;99.90;96801.06;4185526;83;21542;-85
2021/11/28 23:33:31;;;;;;;70.42;28.87;;;;;;;1.30;99.96;96799.85;4189143;83;21074;-85
2021/11/28 23:39:33;;;;;;;70.70;30.52;;;;;;;1.26;99.90;96813.88;4183611;83;22108;-85
2021/11/28 23:45:34;;;;;;;68.17;31.82;;;;;;;1.21;99.85;96812.84;4188843;83;21069;-85
2021/11/28 23:51:38;;;;;;;71.50;30.80;;;;;;;1.20;100.00;96797.04;4184546;83;21134;-85
2021/11/28 23:57:39;;;;;;;74.35;31.12;;;;;;;1.26;100.00;96803.09;4185949;83;21068;-88
